CheckWX is a tool to help pilots better visualize weather data.  It is not intended as a substitute for an official pre-flight weather briefing.

00:10:10 UTC

KRFD TAF
Chicago / Rockford International Airport
Chicago/Rockford, Illinois, USA
KRFD 222320Z 2300/2324 25015G25KT P6SM BKN040 FM230300 25012G20KT P6SM SCT040 FM230600 24012KT P6SM FEW040 FM231400 21010KT P6SM BKN100 PROB30 2314/2318 -SHRA BKN060 FM231900 17008KT P6SM OVC060

Oct-23@
00:00 UTC

Oct-23 @ 00:00 UTC

Oct-23@
03:00 UTC

Oct-23 @ 03:00 UTC

KRFD 222320Z 2300/2324 25015G25KT P6SM BKN040
Wind
  • 250° at 15 KTS
  • {Gusting to 25 KTS
Cloud Levels
  • Broken at 4,000' AGL

Oct-23@
03:00 UTC

Oct-23 @ 03:00 UTC

Oct-23@
06:00 UTC

Oct-23 @ 06:00 UTC

FM230300 25012G20KT P6SM SCT040

From

From Standard forecast or significant change

Wind
  • 250° at 12 KTS
  • {Gusting to 20 KTS
Cloud Levels
  • Scattered at 4,000' AGL

Oct-23@
06:00 UTC

Oct-23 @ 06:00 UTC

Oct-23@
14:00 UTC

Oct-23 @ 14:00 UTC

FM230600 24012KT P6SM FEW040

From

From Standard forecast or significant change

Wind
  • 240° at 12 KTS
Cloud Levels
  • Few at 4,000' AGL

Oct-23@
14:00 UTC

Oct-23 @ 14:00 UTC

Oct-23@
18:00 UTC

Oct-23 @ 18:00 UTC

PROB30 2314/2318 -SHRA BKN060

Probable - 30% Likelihood

Probable - 30% Likelihood during this time.

Conditions
Light Rain
Cloud Levels
  • Broken at 6,000' AGL

Oct-23@
14:00 UTC

Oct-23 @ 14:00 UTC

Oct-23@
19:00 UTC

Oct-23 @ 19:00 UTC

FM231400 21010KT P6SM BKN100

From

From Standard forecast or significant change

Wind
  • 210° at 10 KTS
Cloud Levels
  • Broken at 10,000' AGL

Oct-23@
19:00 UTC

Oct-23 @ 19:00 UTC

Oct-24@
00:00 UTC

Oct-24 @ 00:00 UTC

FM231900 17008KT P6SM OVC060

From

From Standard forecast or significant change

Wind
  • 170° at 8 KTS
Cloud Levels
  • Overcast at 6,000' AGL